Terminal Aerodrome Forecast
Issued by NWS Grand Forks, ND

Home | Current Version | Previous Version | Graphics & Text | Print | Product List | Glossary On
Versions: 1 2 3 4 5 6 7 8 9 10 11 12 13 14 15
548
FTUS43 KFGF 231120
TAFGFK
TAF
KGFK 231120Z 2312/2412 31016G23KT P6SM OVC025
     FM231800 32019G27KT P6SM BKN040
     FM240100 32015KT P6SM SCT080
     FM240800 31011KT P6SM BKN060=

USA.gov is the U.S. government's official web portal to all federal, state and local government web resources and services.